createdAt,value
2023-06-28T00:00:34.298Z,9.30
2023-06-28T00:01:37.588Z,10.00
2023-06-28T00:02:40.641Z,9.10
2023-06-28T00:03:45.567Z,10.80
2023-06-28T00:04:48.969Z,10.00
2023-06-28T00:05:53.011Z,9.00
2023-06-28T00:06:55.968Z,9.90
2023-06-28T00:07:58.721Z,10.73
2023-06-28T00:09:01.672Z,11.70
2023-06-28T00:10:05.238Z,8.90
2023-06-28T00:11:09.192Z,8.60
2023-06-28T00:12:12.528Z,10.20
2023-06-28T00:13:16.001Z,11.10
2023-06-28T00:14:19.242Z,9.90
2023-06-28T00:15:22.408Z,9.90
2023-06-28T00:16:25.621Z,9.50
2023-06-28T00:17:28.960Z,10.10
2023-06-28T00:18:33.693Z,11.20
2023-06-28T00:19:38.372Z,9.70
2023-06-28T00:20:41.682Z,8.80
2023-06-28T00:21:45.490Z,9.50
2023-06-28T00:22:48.280Z,10.70
2023-06-28T00:23:51.170Z,10.00
2023-06-28T00:24:55.507Z,11.40
2023-06-28T00:25:58.255Z,11.90
2023-06-28T00:27:01.214Z,10.80
2023-06-28T00:28:04.743Z,10.55
2023-06-28T00:29:10.660Z,10.70
2023-06-28T00:30:15.060Z,12.50
2023-06-28T00:31:17.896Z,11.10
2023-06-28T00:32:22.923Z,9.60
2023-06-28T00:33:28.015Z,5.30
2023-06-28T00:34:30.889Z,12.20
2023-06-28T00:35:35.143Z,11.40
2023-06-28T00:36:38.547Z,10.30
2023-06-28T00:37:42.562Z,10.70
2023-06-28T00:38:45.405Z,11.00
2023-06-28T00:39:48.524Z,11.55
2023-06-28T00:40:53.568Z,11.20
2023-06-28T00:41:56.433Z,11.60
2023-06-28T00:42:59.864Z,12.00
2023-06-28T00:44:04.397Z,10.60
2023-06-28T00:45:09.624Z,12.40
2023-06-28T00:46:14.707Z,11.20
2023-06-28T00:47:18.696Z,11.50
2023-06-28T00:48:22.226Z,12.00
2023-06-28T00:49:26.789Z,12.50
2023-06-28T00:50:29.643Z,10.20
2023-06-28T00:51:36.982Z,11.50
2023-06-28T00:52:41.629Z,4.10
2023-06-28T00:53:44.378Z,9.00
2023-06-28T00:54:49.456Z,8.90
2023-06-28T00:55:54.084Z,11.10
2023-06-28T00:56:57.640Z,11.00
2023-06-28T00:58:01.581Z,12.50
2023-06-28T00:59:04.893Z,10.50
2023-06-28T01:00:11.425Z,10.30
2023-06-28T01:01:15.993Z,9.50
2023-06-28T01:02:20.976Z,11.60
2023-06-28T01:03:24.229Z,10.50
2023-06-28T01:04:27.814Z,12.40
2023-06-28T01:05:30.689Z,11.50
2023-06-28T01:06:35.933Z,12.60
2023-06-28T01:07:39.421Z,11.20
2023-06-28T01:08:43.069Z,11.20
2023-06-28T01:09:46.659Z,10.30
2023-06-28T01:10:49.289Z,9.30
2023-06-28T01:11:53.071Z,11.18
2023-06-28T01:12:56.166Z,9.70
2023-06-28T01:13:59.669Z,9.90
2023-06-28T01:15:05.634Z,8.20
2023-06-28T01:16:08.674Z,12.10
2023-06-28T01:17:12.124Z,10.73
2023-06-28T01:18:16.792Z,11.90
2023-06-28T01:19:20.562Z,11.40
2023-06-28T01:20:24.759Z,11.80
2023-06-28T01:21:30.854Z,12.10
2023-06-28T01:22:33.667Z,10.20
2023-06-28T01:23:38.224Z,10.70
2023-06-28T01:24:41.441Z,10.20
2023-06-28T01:25:44.617Z,10.20
2023-06-28T01:26:50.374Z,11.90
2023-06-28T01:27:53.007Z,10.50
2023-06-28T01:28:56.500Z,8.80
2023-06-28T01:30:02.003Z,9.10
2023-06-28T01:31:05.644Z,8.10
2023-06-28T01:32:10.904Z,9.00
2023-06-28T01:33:14.261Z,12.90
2023-06-28T01:34:17.979Z,10.30
2023-06-28T01:35:20.786Z,9.70
2023-06-28T01:36:25.468Z,9.50
2023-06-28T01:37:28.879Z,10.18
2023-06-28T01:38:32.965Z,9.00
2023-06-28T01:39:35.716Z,10.50
2023-06-28T01:40:39.126Z,10.09
2023-06-28T01:41:42.548Z,9.10
2023-06-28T01:42:45.316Z,9.70
2023-06-28T01:43:49.085Z,8.90
2023-06-28T01:44:53.614Z,7.80
2023-06-28T01:45:56.263Z,9.60
2023-06-28T01:46:59.347Z,8.10
2023-06-28T01:48:03.636Z,8.60
2023-06-28T01:49:08.045Z,9.90
2023-06-28T01:50:11.026Z,9.50
2023-06-28T01:51:14.890Z,8.64
2023-06-28T01:52:17.957Z,9.20
2023-06-28T01:53:21.280Z,8.70
2023-06-28T01:54:24.138Z,9.60
2023-06-28T01:55:27.521Z,7.82
2023-06-28T01:56:30.728Z,8.50
2023-06-28T01:57:33.569Z,7.60
2023-06-28T01:58:36.429Z,9.36
2023-06-28T01:59:39.199Z,7.82
2023-06-28T02:00:43.352Z,8.64
2023-06-28T02:01:47.629Z,9.50
2023-06-28T02:02:51.250Z,9.60
2023-06-28T02:03:54.715Z,7.20
2023-06-28T02:04:58.871Z,7.70
2023-06-28T02:06:01.985Z,8.70
2023-06-28T02:07:06.175Z,9.30
2023-06-28T02:08:09.066Z,9.60
2023-06-28T02:09:13.101Z,6.64
2023-06-28T02:10:17.668Z,10.80
2023-06-28T02:11:20.575Z,8.00
2023-06-28T02:12:23.583Z,9.40
2023-06-28T02:13:26.593Z,8.91
2023-06-28T02:14:30.008Z,8.40
2023-06-28T02:15:33.898Z,7.36
2023-06-28T02:16:38.018Z,8.40
2023-06-28T02:17:41.074Z,7.09
2023-06-28T02:18:45.727Z,9.09
2023-06-28T02:19:48.725Z,8.20
2023-06-28T02:20:52.350Z,9.50
2023-06-28T02:21:56.759Z,8.50
2023-06-28T02:22:59.318Z,7.70
2023-06-28T02:24:04.558Z,8.20
2023-06-28T02:25:08.606Z,9.80
2023-06-28T02:26:12.411Z,10.70
2023-06-28T02:27:15.570Z,8.70
2023-06-28T02:28:20.213Z,9.60
2023-06-28T02:29:23.341Z,9.60
2023-06-28T02:30:26.032Z,9.45
2023-06-28T02:31:30.632Z,11.10
2023-06-28T02:32:33.451Z,10.80
2023-06-28T02:33:36.318Z,10.91
2023-06-28T02:34:39.259Z,9.80
2023-06-28T02:35:43.517Z,11.00
2023-06-28T02:36:46.790Z,12.20
2023-06-28T02:37:49.927Z,9.45
2023-06-28T02:38:53.865Z,9.50
2023-06-28T02:39:58.175Z,11.70
2023-06-28T02:41:02.178Z,11.70
2023-06-28T02:42:06.268Z,14.50
2023-06-28T02:43:09.927Z,13.40
2023-06-28T02:44:12.709Z,12.36
2023-06-28T02:45:17.503Z,9.50
2023-06-28T02:46:20.605Z,12.10
2023-06-28T02:47:23.895Z,13.40
2023-06-28T02:48:26.944Z,11.60
2023-06-28T02:49:30.673Z,12.20
2023-06-28T02:50:34.338Z,13.90
2023-06-28T02:51:41.863Z,11.50
2023-06-28T02:52:46.720Z,12.60
2023-06-28T02:53:50.633Z,12.50
2023-06-28T02:54:54.081Z,11.70
2023-06-28T02:55:58.480Z,11.30
2023-06-28T02:57:05.545Z,11.90
2023-06-28T02:58:28.474Z,12.00
2023-06-28T02:59:33.094Z,11.70
2023-06-28T03:00:37.942Z,12.00
2023-06-28T03:01:41.281Z,11.90
2023-06-28T03:02:44.218Z,8.80
2023-06-28T03:03:48.643Z,10.90
2023-06-28T03:04:51.905Z,11.00
2023-06-28T03:05:54.786Z,9.90
2023-06-28T03:06:58.043Z,10.50
2023-06-28T03:08:00.728Z,9.90
2023-06-28T03:09:04.908Z,10.45
2023-06-28T03:10:09.166Z,9.10
2023-06-28T03:11:12.369Z,10.00
2023-06-28T03:12:15.451Z,10.50
2023-06-28T03:13:18.773Z,9.90
2023-06-28T03:14:21.770Z,11.40
2023-06-28T03:15:24.522Z,10.64
2023-06-28T03:16:28.694Z,8.91
2023-06-28T03:17:31.774Z,10.90
2023-06-28T03:18:36.099Z,11.10
2023-06-28T03:19:39.356Z,12.40
2023-06-28T03:20:44.818Z,8.50
2023-06-28T03:21:48.784Z,8.10
2023-06-28T03:22:52.315Z,8.40
2023-06-28T03:23:55.857Z,8.50
2023-06-28T03:24:59.889Z,8.70
2023-06-28T03:26:04.418Z,7.20
2023-06-28T03:27:08.962Z,7.20
2023-06-28T03:28:13.108Z,10.90
2023-06-28T03:29:16.476Z,9.70
2023-06-28T03:30:21.112Z,8.60
2023-06-28T03:31:24.840Z,8.00
2023-06-28T03:32:29.497Z,8.10
2023-06-28T03:33:32.653Z,8.40
2023-06-28T03:34:35.417Z,8.10
2023-06-28T03:35:38.360Z,8.91
2023-06-28T03:36:54.506Z,8.00
2023-06-28T03:37:53.167Z,9.00
2023-06-28T03:38:57.062Z,6.60
2023-06-28T03:40:01.009Z,8.40
2023-06-28T03:41:04.358Z,7.70
2023-06-28T03:42:07.495Z,7.60
2023-06-28T03:43:12.314Z,8.00
2023-06-28T03:44:15.163Z,6.50
2023-06-28T03:45:18.730Z,8.82
2023-06-28T03:46:22.153Z,6.80
2023-06-28T03:47:25.818Z,6.00
2023-06-28T03:48:29.960Z,7.30
2023-06-28T03:49:32.819Z,7.10
2023-06-28T03:50:36.937Z,7.10
2023-06-28T03:51:40.317Z,7.20
2023-06-28T03:52:43.614Z,6.90
2023-06-28T03:53:49.925Z,7.00
2023-06-28T03:55:06.796Z,8.40
2023-06-28T03:56:10.353Z,6.80
2023-06-28T03:57:13.310Z,7.30
2023-06-28T03:58:16.015Z,7.55
2023-06-28T03:59:19.193Z,7.00
2023-06-28T04:00:24.191Z,7.30
2023-06-28T04:01:28.340Z,6.70
2023-06-28T04:02:31.673Z,6.50
2023-06-28T04:03:34.839Z,7.60
2023-06-28T04:04:37.882Z,6.70
2023-06-28T04:05:40.515Z,7.18
2023-06-28T04:06:43.382Z,7.00
2023-06-28T04:07:49.112Z,6.45
2023-06-28T04:08:51.958Z,8.10
2023-06-28T04:09:54.634Z,6.00
2023-06-28T04:10:57.521Z,5.30
2023-06-28T04:12:00.943Z,6.80
2023-06-28T04:13:04.768Z,6.90
2023-06-28T04:14:07.515Z,7.00
2023-06-28T04:15:12.314Z,6.30
2023-06-28T04:16:17.024Z,6.20
2023-06-28T04:17:20.760Z,6.20
2023-06-28T04:18:23.951Z,6.40
2023-06-28T04:19:26.689Z,6.00
2023-06-28T04:20:29.934Z,6.40
2023-06-28T04:21:33.455Z,5.60
2023-06-28T04:22:36.421Z,5.20
2023-06-28T04:23:39.181Z,6.73
2023-06-28T04:24:44.427Z,6.18
2023-06-28T04:25:47.607Z,5.70
2023-06-28T04:26:50.862Z,6.20
2023-06-28T04:27:53.504Z,5.10
2023-06-28T04:28:57.103Z,7.50
2023-06-28T04:30:00.085Z,5.70
2023-06-28T04:31:02.935Z,4.70
2023-06-28T04:33:23.270Z,6.50
2023-06-28T04:34:26.215Z,6.00
2023-06-28T04:35:31.934Z,5.70
2023-06-28T04:36:34.673Z,6.10
2023-06-28T04:37:40.319Z,5.82
2023-06-28T04:38:43.170Z,4.90
2023-06-28T04:39:47.116Z,5.30
2023-06-28T04:40:51.270Z,5.70
2023-06-28T04:41:55.194Z,6.30
2023-06-28T04:42:58.141Z,5.50
2023-06-28T04:44:01.151Z,5.60
2023-06-28T04:45:07.894Z,5.09
2023-06-28T04:46:12.547Z,6.00
2023-06-28T04:47:18.575Z,5.40
2023-06-28T04:48:21.859Z,5.40
2023-06-28T04:49:24.608Z,4.30
2023-06-28T04:50:28.628Z,6.27
2023-06-28T04:51:31.382Z,5.90
2023-06-28T04:52:34.246Z,6.27
2023-06-28T04:53:38.468Z,5.70
2023-06-28T04:54:44.230Z,6.27
2023-06-28T04:55:48.693Z,6.00
2023-06-28T04:56:51.556Z,5.50
2023-06-28T04:57:55.797Z,5.80
2023-06-28T04:59:01.344Z,6.00
2023-06-28T05:00:08.907Z,5.90
2023-06-28T05:01:13.795Z,5.50
2023-06-28T05:02:18.905Z,6.00
2023-06-28T05:03:23.808Z,4.60
2023-06-28T05:04:27.589Z,4.90
2023-06-28T05:05:30.668Z,5.20
2023-06-28T05:06:35.533Z,5.80
2023-06-28T05:07:39.059Z,3.90
2023-06-28T05:08:42.429Z,5.40
2023-06-28T05:09:45.480Z,5.40
2023-06-28T05:10:48.929Z,5.80
2023-06-28T05:11:53.317Z,2.80
2023-06-28T05:12:56.662Z,5.80
2023-06-28T05:14:02.817Z,6.30
2023-06-28T05:15:05.507Z,4.70
2023-06-28T05:16:08.983Z,4.90
2023-06-28T05:17:12.548Z,6.90
2023-06-28T05:18:15.985Z,5.27
2023-06-28T05:19:19.329Z,5.10
2023-06-28T05:20:23.407Z,4.80
2023-06-28T05:21:26.052Z,5.30
2023-06-28T05:22:30.662Z,5.64
2023-06-28T05:24:46.315Z,5.10
2023-06-28T05:25:49.183Z,5.55
2023-06-28T05:26:52.468Z,5.70
2023-06-28T05:27:55.202Z,5.70
2023-06-28T05:28:59.201Z,5.09
2023-06-28T05:30:03.452Z,4.60
2023-06-28T05:31:06.902Z,5.30
2023-06-28T05:32:09.842Z,5.40
2023-06-28T05:33:12.719Z,4.45
2023-06-28T05:34:15.657Z,5.40
2023-06-28T05:35:18.330Z,5.82
2023-06-28T05:36:22.987Z,3.80
2023-06-28T05:37:26.143Z,4.80
2023-06-28T05:38:28.826Z,6.64
2023-06-28T05:39:31.785Z,5.80
2023-06-28T05:40:34.538Z,4.09
2023-06-28T05:41:37.386Z,2.45
2023-06-28T05:42:40.128Z,4.60
2023-06-28T05:43:45.425Z,5.11
2023-06-28T05:44:48.251Z,4.20
2023-06-28T05:45:51.012Z,5.00
2023-06-28T05:46:53.986Z,4.40
2023-06-28T05:47:58.560Z,4.40
2023-06-28T05:49:03.485Z,4.30
2023-06-28T05:50:09.580Z,5.10
2023-06-28T05:51:14.838Z,4.90
2023-06-28T05:52:18.616Z,4.70
2023-06-28T05:53:22.001Z,5.50
2023-06-28T05:54:25.150Z,4.60
2023-06-28T05:55:28.541Z,5.30
2023-06-28T05:56:32.962Z,4.80
2023-06-28T05:57:36.171Z,4.90
2023-06-28T05:58:38.916Z,4.80
2023-06-28T05:59:43.120Z,5.55
2023-06-28T06:00:45.869Z,4.60
2023-06-28T06:01:49.868Z,4.18
2023-06-28T06:02:54.231Z,2.70
2023-06-28T06:03:57.227Z,4.50
2023-06-28T06:05:01.967Z,4.30
2023-06-28T06:06:05.387Z,3.90
2023-06-28T06:07:14.784Z,4.50
2023-06-28T06:08:18.376Z,4.60
2023-06-28T06:09:22.625Z,5.70
2023-06-28T06:10:26.713Z,4.10
2023-06-28T06:11:30.395Z,4.40
2023-06-28T06:12:33.320Z,5.30
2023-06-28T06:13:37.893Z,4.64
2023-06-28T06:14:41.164Z,4.30
2023-06-28T06:15:43.811Z,4.10
2023-06-28T06:16:46.926Z,3.20
2023-06-28T06:17:50.826Z,4.73
2023-06-28T06:18:55.282Z,4.60
2023-06-28T06:19:59.923Z,3.00
2023-06-28T06:21:03.235Z,4.70
2023-06-28T06:22:07.915Z,3.60
2023-06-28T06:23:10.648Z,4.70
2023-06-28T06:24:14.401Z,4.27
2023-06-28T06:25:17.452Z,4.40
2023-06-28T06:26:20.401Z,3.90
2023-06-28T06:27:23.246Z,4.00
2023-06-28T06:28:26.175Z,3.00
2023-06-28T06:29:30.040Z,4.09
2023-06-28T06:30:32.997Z,4.90
2023-06-28T06:31:35.926Z,3.36
2023-06-28T06:32:39.836Z,3.90
2023-06-28T06:33:42.870Z,3.90
2023-06-28T06:34:45.938Z,2.80
2023-06-28T06:35:50.333Z,3.20
2023-06-28T06:36:55.006Z,3.70
2023-06-28T06:37:58.736Z,2.80
2023-06-28T06:39:01.448Z,4.40
2023-06-28T06:40:09.005Z,3.40
2023-06-28T06:41:14.026Z,4.20
2023-06-28T06:42:18.251Z,1.50
2023-06-28T06:43:21.438Z,3.40
2023-06-28T06:44:24.786Z,2.30
2023-06-28T06:45:28.264Z,2.91
2023-06-28T06:46:31.472Z,3.70
2023-06-28T06:48:51.644Z,4.40
2023-06-28T06:49:55.245Z,2.80
2023-06-28T06:50:58.899Z,3.20
2023-06-28T06:52:01.995Z,2.90
2023-06-28T06:53:04.829Z,4.00
2023-06-28T06:54:09.259Z,2.73
2023-06-28T06:55:13.111Z,2.80
2023-06-28T06:56:23.802Z,2.50
2023-06-28T06:57:27.648Z,2.70
2023-06-28T06:58:30.384Z,3.18
2023-06-28T06:59:33.781Z,3.45
2023-06-28T07:00:37.159Z,2.80
2023-06-28T07:01:40.640Z,3.20
2023-06-28T07:02:44.103Z,3.00
2023-06-28T07:03:48.516Z,3.10
2023-06-28T07:04:51.353Z,2.90
2023-06-28T07:05:55.088Z,3.00
2023-06-28T07:06:58.008Z,2.90
2023-06-28T07:08:00.710Z,3.45
2023-06-28T07:09:04.138Z,2.20
2023-06-28T07:10:11.040Z,3.20
2023-06-28T07:11:14.091Z,3.10
2023-06-28T07:12:16.834Z,3.60
2023-06-28T07:13:19.594Z,3.00
2023-06-28T07:14:22.261Z,3.80
2023-06-28T07:15:24.994Z,3.50
2023-06-28T07:16:27.704Z,3.82
2023-06-28T07:17:32.849Z,3.80
2023-06-28T07:18:37.114Z,3.40
2023-06-28T07:19:40.195Z,3.20
2023-06-28T07:20:43.838Z,2.70
2023-06-28T07:21:46.861Z,3.50
2023-06-28T07:22:50.442Z,2.80
2023-06-28T07:23:54.839Z,2.10
2023-06-28T07:24:57.553Z,2.50
2023-06-28T07:26:01.636Z,3.36
2023-06-28T07:27:07.579Z,3.20
2023-06-28T07:28:10.648Z,1.80
2023-06-28T07:29:14.048Z,2.20
2023-06-28T07:30:17.563Z,2.40
2023-06-28T07:31:21.190Z,2.60
2023-06-28T07:32:26.465Z,2.20
2023-06-28T07:33:29.601Z,3.20
2023-06-28T07:34:32.261Z,2.50
2023-06-28T07:35:35.863Z,2.10
2023-06-28T07:36:40.682Z,2.10
2023-06-28T07:37:43.874Z,2.20
2023-06-28T07:38:49.023Z,3.30
2023-06-28T07:39:52.419Z,2.50
2023-06-28T07:40:55.255Z,2.60
2023-06-28T07:41:58.882Z,3.00
2023-06-28T07:43:03.395Z,2.40
2023-06-28T07:44:07.390Z,2.40
2023-06-28T07:45:12.608Z,2.80
2023-06-28T07:46:16.696Z,2.10
2023-06-28T07:47:20.826Z,2.30
2023-06-28T07:48:24.882Z,3.50
2023-06-28T07:49:27.985Z,1.40
2023-06-28T07:50:32.944Z,3.00
2023-06-28T07:51:36.793Z,2.30
2023-06-28T07:52:39.761Z,2.40
2023-06-28T07:53:43.798Z,3.50
2023-06-28T07:54:46.661Z,3.60
2023-06-28T07:55:50.054Z,2.55
2023-06-28T07:56:52.960Z,3.00
2023-06-28T07:57:56.422Z,2.82
2023-06-28T07:59:02.645Z,1.80
2023-06-28T08:00:07.214Z,1.90
2023-06-28T08:01:11.088Z,1.30
2023-06-28T08:02:14.356Z,2.80
2023-06-28T08:03:17.252Z,2.20
2023-06-28T08:04:20.877Z,2.20
2023-06-28T08:05:23.793Z,1.70
2023-06-28T08:06:26.761Z,2.50
2023-06-28T08:07:29.583Z,1.36
2023-06-28T08:08:32.412Z,3.00
2023-06-28T08:09:35.028Z,2.40
2023-06-28T08:10:39.081Z,2.82
2023-06-28T08:11:42.628Z,2.10
2023-06-28T08:12:45.391Z,2.00
2023-06-28T08:13:48.465Z,2.09
2023-06-28T08:14:51.512Z,2.64
2023-06-28T08:15:55.720Z,1.70
2023-06-28T08:17:00.039Z,1.60
2023-06-28T08:18:03.628Z,1.80
2023-06-28T08:19:07.613Z,2.70
2023-06-28T08:20:12.144Z,3.00
2023-06-28T08:21:15.947Z,1.80
2023-06-28T08:22:19.046Z,1.70
2023-06-28T08:23:22.535Z,2.10
2023-06-28T08:24:25.438Z,2.80
2023-06-28T08:25:28.899Z,1.50
2023-06-28T08:26:31.746Z,2.30
2023-06-28T08:27:48.886Z,2.36
2023-06-28T08:28:59.865Z,1.40
2023-06-28T08:29:57.425Z,1.00
2023-06-28T08:31:00.324Z,2.30
2023-06-28T08:32:06.805Z,2.45
2023-06-28T08:33:09.762Z,1.80
2023-06-28T08:34:13.561Z,2.80
2023-06-28T08:35:17.085Z,2.60
2023-06-28T08:36:20.335Z,1.90
2023-06-28T08:37:24.005Z,1.64
2023-06-28T08:38:27.091Z,2.00
2023-06-28T08:39:31.317Z,1.45
2023-06-28T08:40:34.493Z,2.40
2023-06-28T08:41:37.405Z,2.10
2023-06-28T08:42:41.745Z,1.20
2023-06-28T08:43:46.007Z,2.30
2023-06-28T08:44:51.431Z,2.90
2023-06-28T08:45:54.257Z,2.60
2023-06-28T08:46:57.469Z,1.45
2023-06-28T08:48:09.633Z,2.00
2023-06-28T08:49:07.211Z,2.40
2023-06-28T08:50:24.280Z,2.10
2023-06-28T08:51:29.265Z,1.80
2023-06-28T08:52:33.073Z,1.60
2023-06-28T08:53:36.508Z,2.09
2023-06-28T08:54:39.119Z,2.30
2023-06-28T08:55:44.043Z,2.00
2023-06-28T08:57:04.427Z,2.80
2023-06-28T08:57:53.321Z,0.80
2023-06-28T08:58:57.132Z,1.30
2023-06-28T09:00:00.831Z,1.80
2023-06-28T09:01:04.536Z,1.90
2023-06-28T09:02:12.033Z,2.20
2023-06-28T09:03:16.447Z,1.90
2023-06-28T09:04:20.008Z,2.30
2023-06-28T09:05:23.348Z,1.80
2023-06-28T09:06:28.163Z,2.09
2023-06-28T09:07:32.567Z,1.10
2023-06-28T09:08:35.881Z,2.00
2023-06-28T09:10:51.351Z,2.10
2023-06-28T09:11:55.411Z,2.00
2023-06-28T09:12:58.027Z,2.70
2023-06-28T09:14:01.978Z,1.10
2023-06-28T09:15:05.473Z,0.70
2023-06-28T09:16:11.152Z,2.50
2023-06-28T09:17:13.869Z,1.00
2023-06-28T09:18:16.323Z,1.70
2023-06-28T09:19:20.365Z,2.60
2023-06-28T09:20:25.137Z,2.00
2023-06-28T09:21:29.118Z,1.00
2023-06-28T09:22:31.732Z,2.40
2023-06-28T09:23:35.879Z,2.00
2023-06-28T09:24:39.102Z,2.00
2023-06-28T09:25:42.965Z,1.00
2023-06-28T09:26:46.913Z,1.80
2023-06-28T09:27:50.278Z,1.90
2023-06-28T09:29:12.994Z,2.00
2023-06-28T09:30:22.960Z,1.80
2023-06-28T09:31:25.718Z,2.10
2023-06-28T09:32:41.489Z,1.30
2023-06-28T09:33:44.865Z,1.30
2023-06-28T09:34:48.309Z,1.20
2023-06-28T09:35:58.933Z,1.10
2023-06-28T09:37:02.300Z,1.60
2023-06-28T09:38:08.451Z,2.30
2023-06-28T09:39:11.265Z,1.80
2023-06-28T09:40:17.772Z,2.10
2023-06-28T09:41:22.019Z,1.80
2023-06-28T09:42:24.884Z,2.00
2023-06-28T09:43:32.867Z,1.30
2023-06-28T09:44:37.449Z,1.80
2023-06-28T09:45:40.439Z,1.60
2023-06-28T09:48:00.752Z,1.50
2023-06-28T09:49:03.634Z,1.40
2023-06-28T09:50:07.535Z,1.20
2023-06-28T09:51:12.518Z,1.00
2023-06-28T09:52:16.113Z,1.20
2023-06-28T09:53:20.622Z,1.70
2023-06-28T09:54:35.091Z,1.80
2023-06-28T09:55:39.674Z,2.00
2023-06-28T09:56:43.367Z,0.70
2023-06-28T09:57:46.145Z,1.10
2023-06-28T09:58:49.309Z,1.00
2023-06-28T09:59:53.438Z,1.30
2023-06-28T10:00:56.507Z,1.30
2023-06-28T10:01:59.741Z,2.00
2023-06-28T10:03:05.085Z,1.00
2023-06-28T10:04:11.847Z,1.10
2023-06-28T10:05:14.777Z,1.30
2023-06-28T10:06:18.736Z,1.00
2023-06-28T10:07:21.477Z,1.50
2023-06-28T10:08:24.204Z,1.00
2023-06-28T10:09:30.144Z,0.91
2023-06-28T10:10:34.880Z,1.20
2023-06-28T10:11:37.976Z,0.80
2023-06-28T10:12:41.032Z,1.00
2023-06-28T10:13:45.731Z,0.80
2023-06-28T10:14:59.678Z,2.00
2023-06-28T10:16:15.356Z,1.00
2023-06-28T10:17:19.033Z,0.80
2023-06-28T10:18:22.672Z,1.40
2023-06-28T10:19:25.623Z,1.50
2023-06-28T10:20:28.577Z,1.00
2023-06-28T10:21:31.919Z,1.00
2023-06-28T10:22:36.788Z,1.60
2023-06-28T10:23:40.497Z,2.10
2023-06-28T10:24:44.266Z,0.60
2023-06-28T10:25:47.681Z,1.20
2023-06-28T10:26:51.308Z,1.60
2023-06-28T10:27:54.736Z,1.80
2023-06-28T10:28:59.113Z,1.00
2023-06-28T10:31:13.702Z,1.50
2023-06-28T10:32:17.233Z,1.18
2023-06-28T10:34:35.682Z,1.30
2023-06-28T10:35:38.969Z,0.90
2023-06-28T10:36:45.015Z,0.80
2023-06-28T10:37:49.863Z,1.30
2023-06-28T10:38:52.526Z,1.50
2023-06-28T10:39:55.458Z,1.20
2023-06-28T10:41:00.352Z,0.73
2023-06-28T10:42:05.578Z,0.20
2023-06-28T10:43:26.923Z,1.20
2023-06-28T10:44:30.320Z,1.20
2023-06-28T10:46:47.548Z,0.80
2023-06-28T10:47:55.945Z,0.60
2023-06-28T10:49:02.477Z,1.00
2023-06-28T10:50:07.742Z,0.70
2023-06-28T10:51:12.646Z,1.20
2023-06-28T10:52:20.373Z,1.00
2023-06-28T10:53:25.829Z,0.30
2023-06-28T10:54:28.817Z,0.80
2023-06-28T11:01:06.404Z,0.80
2023-06-28T11:02:10.404Z,0.50
2023-06-28T11:03:15.676Z,1.00
2023-06-28T11:05:42.545Z,1.60
2023-06-28T11:06:46.900Z,0.50
2023-06-28T11:07:51.766Z,1.20
2023-06-28T11:08:55.318Z,1.90
2023-06-28T11:10:12.369Z,1.00
2023-06-28T11:11:35.092Z,1.40
2023-06-28T11:12:41.605Z,0.90
2023-06-28T11:13:46.157Z,1.00
2023-06-28T11:14:50.241Z,1.80
2023-06-28T11:15:53.823Z,0.60
2023-06-28T11:17:04.105Z,0.90
2023-06-28T11:18:11.710Z,1.20
2023-06-28T11:19:16.208Z,0.80
2023-06-28T11:20:20.543Z,1.40
2023-06-28T11:21:24.549Z,1.00
2023-06-28T11:23:46.785Z,0.80
2023-06-28T11:24:49.896Z,1.00
2023-06-28T11:27:18.928Z,1.30
2023-06-28T11:28:27.040Z,1.00
2023-06-28T11:29:30.516Z,1.30
2023-06-28T11:32:03.914Z,0.80
2023-06-28T11:33:07.288Z,1.10
2023-06-28T11:34:10.808Z,0.80
2023-06-28T11:35:13.775Z,1.10
2023-06-28T11:36:16.885Z,0.80
2023-06-28T11:38:33.232Z,1.00
2023-06-28T11:40:48.856Z,1.00
2023-06-28T11:41:51.993Z,0.60
2023-06-28T11:44:08.115Z,1.00
2023-06-28T11:45:13.213Z,0.80
2023-06-28T11:46:20.484Z,0.80
2023-06-28T11:47:28.103Z,1.00
2023-06-28T11:48:31.349Z,1.20
2023-06-28T11:49:35.381Z,0.80
2023-06-28T11:50:38.757Z,1.10
2023-06-28T11:51:42.300Z,1.00
2023-06-28T11:52:49.882Z,1.00
2023-06-28T11:55:08.379Z,1.00
2023-06-28T11:56:12.822Z,1.00
2023-06-28T11:57:17.083Z,1.00
2023-06-28T11:58:28.308Z,0.80
2023-06-28T11:59:32.006Z,1.50
2023-06-28T12:00:41.276Z,1.00
2023-06-28T12:01:45.599Z,1.10
2023-06-28T12:02:51.938Z,0.90
2023-06-28T12:03:55.353Z,0.80
2023-06-28T12:04:58.990Z,1.00
2023-06-28T12:06:03.895Z,0.50
2023-06-28T12:07:08.326Z,1.00
2023-06-28T12:08:12.237Z,1.60
2023-06-28T12:09:25.239Z,1.50
2023-06-28T12:10:36.784Z,1.10
2023-06-28T12:14:43.157Z,0.00
2023-06-28T12:15:46.266Z,1.00
2023-06-28T12:18:04.982Z,1.00
2023-06-28T12:19:08.330Z,1.20
2023-06-28T12:20:15.261Z,1.20
2023-06-28T12:21:19.702Z,0.30
2023-06-28T12:22:22.883Z,0.80
2023-06-28T12:23:25.614Z,0.70
2023-06-28T12:24:28.505Z,0.90
2023-06-28T12:25:31.756Z,0.60
2023-06-28T12:26:34.594Z,0.60
2023-06-28T12:27:38.959Z,0.80
2023-06-28T12:28:41.795Z,0.80
2023-06-28T12:29:45.481Z,0.82
2023-06-28T12:30:48.731Z,1.00
2023-06-28T12:31:53.413Z,1.00
2023-06-28T12:32:57.341Z,1.20
2023-06-28T12:35:23.763Z,0.70
2023-06-28T12:36:31.756Z,1.20
2023-06-28T12:38:50.954Z,0.90
2023-06-28T12:39:54.633Z,0.90
2023-06-28T12:40:58.626Z,1.60
2023-06-28T12:43:24.686Z,0.50
2023-06-28T12:44:28.875Z,1.00
2023-06-28T12:45:32.325Z,1.20
2023-06-28T12:46:35.781Z,1.10
2023-06-28T12:47:38.976Z,1.00
2023-06-28T12:48:41.849Z,0.90
2023-06-28T12:49:45.258Z,1.64
2023-06-28T12:50:50.158Z,0.50
2023-06-28T12:51:54.325Z,1.00
2023-06-28T12:52:57.249Z,1.20
2023-06-28T12:54:00.256Z,0.90
2023-06-28T12:55:03.204Z,0.80
2023-06-28T12:56:06.237Z,0.70
2023-06-28T12:57:09.473Z,1.00
2023-06-28T12:58:12.987Z,0.50
2023-06-28T12:59:16.720Z,0.82
2023-06-28T13:00:20.987Z,0.80
2023-06-28T13:01:24.594Z,1.00
2023-06-28T13:02:27.412Z,1.00
2023-06-28T13:03:31.974Z,1.00
2023-06-28T13:04:39.877Z,0.80
2023-06-28T13:05:43.276Z,0.80
2023-06-28T13:06:47.251Z,0.80
2023-06-28T13:07:49.948Z,1.60
2023-06-28T13:08:53.132Z,0.80
2023-06-28T13:09:55.849Z,0.40
2023-06-28T13:10:59.764Z,0.64
2023-06-28T13:12:03.216Z,1.00
2023-06-28T13:13:06.440Z,0.20
2023-06-28T13:14:09.497Z,1.20
2023-06-28T13:15:14.092Z,1.40
2023-06-28T13:17:31.199Z,1.40
2023-06-28T13:18:34.984Z,0.70
2023-06-28T13:19:37.462Z,0.10
2023-06-28T13:20:41.068Z,1.10
2023-06-28T13:21:50.385Z,1.00
2023-06-28T13:22:53.321Z,0.70
2023-06-28T13:23:56.376Z,1.70
2023-06-28T13:24:59.450Z,1.30
2023-06-28T13:26:02.513Z,1.09
2023-06-28T13:27:06.946Z,0.45
2023-06-28T13:28:09.735Z,0.80
2023-06-28T13:29:12.911Z,0.64
2023-06-28T13:30:16.334Z,1.20
2023-06-28T13:31:19.221Z,1.00
2023-06-28T13:32:21.945Z,1.27
2023-06-28T13:33:24.982Z,0.80
2023-06-28T13:34:28.599Z,1.50
2023-06-28T13:35:31.262Z,1.10
2023-06-28T13:36:36.240Z,0.91
2023-06-28T13:37:40.188Z,1.70
2023-06-28T13:38:44.403Z,1.80
2023-06-28T13:39:47.349Z,1.10
2023-06-28T13:40:50.941Z,1.30
2023-06-28T13:41:53.896Z,2.20
2023-06-28T13:42:57.070Z,0.90
2023-06-28T13:43:59.677Z,1.30
2023-06-28T13:45:03.600Z,1.90
2023-06-28T13:46:07.258Z,1.60
2023-06-28T13:47:10.154Z,1.10
2023-06-28T13:48:12.904Z,1.64
2023-06-28T13:49:16.591Z,0.20
2023-06-28T13:50:19.874Z,1.50
2023-06-28T13:51:23.496Z,1.09
2023-06-28T13:52:26.446Z,1.00
2023-06-28T13:53:30.362Z,1.45
2023-06-28T13:54:35.978Z,1.50
2023-06-28T13:55:39.683Z,1.10
2023-06-28T13:56:43.191Z,2.20
2023-06-28T13:57:46.765Z,0.80
2023-06-28T13:58:49.413Z,1.70
2023-06-28T13:59:52.151Z,0.60
2023-06-28T14:00:56.997Z,1.70
2023-06-28T14:01:59.958Z,1.20
2023-06-28T14:03:03.408Z,1.00
2023-06-28T14:04:06.481Z,1.10
2023-06-28T14:05:09.947Z,0.50
2023-06-28T14:06:14.186Z,1.50
2023-06-28T14:07:17.070Z,1.30
2023-06-28T14:08:20.371Z,0.80
2023-06-28T14:09:23.534Z,1.36
2023-06-28T14:10:26.381Z,1.00
2023-06-28T14:11:30.217Z,1.00
2023-06-28T14:12:35.892Z,1.40
2023-06-28T14:13:39.637Z,1.10
2023-06-28T14:14:46.401Z,0.20
2023-06-28T14:15:49.245Z,1.70
2023-06-28T14:16:52.556Z,1.27
2023-06-28T14:17:56.126Z,1.30
2023-06-28T14:18:59.049Z,0.80
2023-06-28T14:20:02.075Z,1.10
2023-06-28T14:21:05.018Z,1.00
2023-06-28T14:22:07.876Z,1.00
2023-06-28T14:23:10.839Z,0.45
2023-06-28T14:24:13.754Z,0.50
2023-06-28T14:25:17.606Z,1.10
2023-06-28T14:26:23.077Z,1.80
2023-06-28T14:27:25.779Z,1.40
2023-06-28T14:28:31.264Z,1.60
2023-06-28T14:29:34.549Z,1.00
2023-06-28T14:30:38.028Z,1.00
2023-06-28T14:31:41.648Z,1.60
2023-06-28T14:32:46.184Z,1.50
2023-06-28T14:33:50.307Z,1.60
2023-06-28T14:36:06.385Z,0.70
2023-06-28T14:37:09.190Z,1.00
2023-06-28T14:38:14.347Z,2.20
2023-06-28T14:39:17.077Z,1.20
2023-06-28T14:40:20.218Z,1.60
2023-06-28T14:41:23.485Z,1.55
2023-06-28T14:42:26.107Z,1.80
2023-06-28T14:43:28.687Z,1.00
2023-06-28T14:44:31.757Z,0.91
2023-06-28T14:45:34.554Z,1.00